createdAt,value
2023-04-04T00:00:36.666Z,97.30
2023-04-04T00:03:58.548Z,97.20
2023-04-04T00:07:21.653Z,97.20
2023-04-04T00:10:43.446Z,97.10
2023-04-04T00:14:05.064Z,97.10
2023-04-04T00:17:27.620Z,97.30
2023-04-04T00:20:49.218Z,97.20
2023-04-04T00:24:12.160Z,97.60
2023-04-04T00:27:33.792Z,97.50
2023-04-04T00:30:55.395Z,97.50
2023-04-04T00:34:17.034Z,97.70
2023-04-04T00:37:38.687Z,97.80
2023-04-04T00:41:01.778Z,98.00
2023-04-04T00:44:23.430Z,98.10
2023-04-04T00:47:45.365Z,98.10
2023-04-04T00:51:07.063Z,98.00
2023-04-04T00:54:33.563Z,97.90
2023-04-04T00:57:58.254Z,98.10
2023-04-04T01:01:19.895Z,97.80
2023-04-04T01:04:41.739Z,97.70
2023-04-04T01:08:03.504Z,97.50
2023-04-04T01:11:25.790Z,97.40
2023-04-04T01:14:48.717Z,97.70
2023-04-04T01:18:11.761Z,98.00
2023-04-04T01:21:34.209Z,97.60
2023-04-04T01:24:56.918Z,97.40
2023-04-04T01:28:19.894Z,97.30
2023-04-04T01:31:42.020Z,97.30
2023-04-04T01:35:08.628Z,97.30
2023-04-04T01:38:31.835Z,97.20
2023-04-04T01:41:54.181Z,97.20
2023-04-04T01:45:17.328Z,97.20
2023-04-04T01:48:39.014Z,97.40
2023-04-04T01:52:00.951Z,97.30
2023-04-04T01:55:22.576Z,97.40
2023-04-04T01:58:44.319Z,97.20
2023-04-04T02:02:07.310Z,97.10
2023-04-04T02:05:28.935Z,97.10
2023-04-04T02:08:50.592Z,97.10
2023-04-04T02:12:12.173Z,97.20
2023-04-04T02:15:33.864Z,97.40
2023-04-04T02:18:56.871Z,97.20
2023-04-04T02:22:18.471Z,97.10
2023-04-04T02:25:40.056Z,97.00
2023-04-04T02:29:01.635Z,97.10
2023-04-04T02:32:23.566Z,97.10
2023-04-04T02:35:46.641Z,97.30
2023-04-04T02:39:08.286Z,97.40
2023-04-04T02:42:29.883Z,97.50
2023-04-04T02:45:51.535Z,97.50
2023-04-04T02:49:13.122Z,97.70
2023-04-04T02:52:36.044Z,98.10
2023-04-04T02:55:57.679Z,98.30
2023-04-04T02:59:19.314Z,98.50
2023-04-04T03:02:41.063Z,98.50
2023-04-04T03:06:02.808Z,98.70
2023-04-04T03:09:25.827Z,98.80
2023-04-04T03:12:47.413Z,99.00
2023-04-04T03:16:11.514Z,99.00
2023-04-04T03:19:33.598Z,99.00
2023-04-04T03:22:55.461Z,98.80
2023-04-04T03:26:18.844Z,98.90
2023-04-04T03:29:40.894Z,99.10
2023-04-04T03:33:03.840Z,99.20
2023-04-04T03:36:25.712Z,99.30
2023-04-04T03:39:47.347Z,99.40
2023-04-04T03:43:10.275Z,99.50
2023-04-04T03:49:53.662Z,99.60
2023-04-04T03:53:15.266Z,99.60
2023-04-04T03:56:36.953Z,99.70
2023-04-04T04:00:00.105Z,99.90
2023-04-04T04:03:21.948Z,99.80
2023-04-04T04:06:43.922Z,99.80
2023-04-04T04:10:06.153Z,99.80
2023-04-04T04:13:27.748Z,99.80
2023-04-04T04:16:50.721Z,99.80
2023-04-04T04:20:12.402Z,99.80
2023-04-04T04:23:33.986Z,99.90
2023-04-04T04:26:55.586Z,99.90
2023-04-04T04:30:17.244Z,99.90
2023-04-04T04:33:40.230Z,99.90
2023-04-04T04:37:01.849Z,99.90
2023-04-04T04:40:23.466Z,99.90
2023-04-04T04:43:45.065Z,99.90
2023-04-04T04:47:06.768Z,99.90
2023-04-04T04:50:29.795Z,99.90
2023-04-04T04:53:51.425Z,99.90
2023-04-04T04:57:13.179Z,99.90
2023-04-04T05:00:34.843Z,99.90
2023-04-04T05:03:56.508Z,99.80
2023-04-04T05:07:19.510Z,99.90
2023-04-04T05:10:41.827Z,99.80
2023-04-04T05:14:03.623Z,99.70
2023-04-04T05:17:25.253Z,99.60
2023-04-04T05:20:50.451Z,99.50
2023-04-04T05:24:13.398Z,99.40
2023-04-04T05:27:35.443Z,99.30
2023-04-04T05:30:57.496Z,99.30
2023-04-04T05:34:20.111Z,99.30
2023-04-04T05:37:41.751Z,99.40
2023-04-04T05:41:04.768Z,99.60
2023-04-04T05:44:26.355Z,99.00
2023-04-04T05:47:48.021Z,98.80
2023-04-04T05:51:11.203Z,98.70
2023-04-04T05:54:33.829Z,98.10
2023-04-04T05:57:56.805Z,98.00
2023-04-04T06:01:19.015Z,97.70
2023-04-04T06:04:40.624Z,96.80
2023-04-04T06:08:02.256Z,95.70
2023-04-04T06:11:23.865Z,92.30
2023-04-04T06:14:46.835Z,89.10
2023-04-04T06:18:08.515Z,85.50
2023-04-04T06:21:30.139Z,81.00
2023-04-04T06:24:51.729Z,78.80
2023-04-04T06:28:13.322Z,78.00
2023-04-04T06:34:58.301Z,74.70
2023-04-04T06:38:19.896Z,71.20
2023-04-04T06:41:41.467Z,70.80
2023-04-04T06:45:03.216Z,69.80
2023-04-04T06:48:24.832Z,68.60
2023-04-04T06:51:48.138Z,71.50
2023-04-04T06:55:09.802Z,69.70
2023-04-04T06:58:31.407Z,69.60
2023-04-04T07:01:53.055Z,69.30
2023-04-04T07:05:14.829Z,69.20
2023-04-04T07:08:37.818Z,68.50
2023-04-04T07:11:59.428Z,67.60
2023-04-04T07:15:21.271Z,66.60
2023-04-04T07:18:42.948Z,66.00
2023-04-04T07:22:04.573Z,66.70
2023-04-04T07:25:27.962Z,67.00
2023-04-04T07:28:49.590Z,67.80
2023-04-04T07:32:11.222Z,66.60
2023-04-04T07:35:32.908Z,65.20
2023-04-04T07:38:54.685Z,64.70
2023-04-04T07:42:17.612Z,64.20
2023-04-04T07:45:39.242Z,65.20
2023-04-04T07:49:00.907Z,67.30
2023-04-04T07:52:22.490Z,64.40
2023-04-04T07:55:44.121Z,64.50
2023-04-04T07:59:07.140Z,63.70
2023-04-04T08:02:28.808Z,62.30
2023-04-04T08:05:50.503Z,62.30
2023-04-04T08:09:12.140Z,64.00
2023-04-04T08:12:33.790Z,63.00
2023-04-04T08:15:56.824Z,61.70
2023-04-04T08:19:18.476Z,63.40
2023-04-04T08:22:40.125Z,62.60
2023-04-04T08:26:01.743Z,63.80
2023-04-04T08:29:23.352Z,62.70
2023-04-04T08:32:46.418Z,60.20
2023-04-04T08:36:08.544Z,59.40
2023-04-04T08:39:30.166Z,61.40
2023-04-04T08:42:52.036Z,60.80
2023-04-04T08:46:14.270Z,59.70
2023-04-04T08:49:38.313Z,61.20
2023-04-04T08:53:00.881Z,60.60
2023-04-04T08:56:23.443Z,59.20
2023-04-04T08:59:47.903Z,60.10
2023-04-04T09:03:14.850Z,59.70
2023-04-04T09:06:38.916Z,59.70
2023-04-04T09:10:02.224Z,59.30
2023-04-04T09:13:23.995Z,62.80
2023-04-04T09:16:45.663Z,64.40
2023-04-04T09:20:22.382Z,63.10
2023-04-04T09:23:45.334Z,61.10
2023-04-04T09:27:07.520Z,60.30
2023-04-04T09:30:29.122Z,60.40
2023-04-04T09:33:50.790Z,62.30
2023-04-04T09:37:14.579Z,61.10
2023-04-04T09:40:41.028Z,61.40
2023-04-04T09:44:03.380Z,61.70
2023-04-04T09:50:51.248Z,60.90
2023-04-04T09:54:28.731Z,59.40
2023-04-04T09:57:53.418Z,62.00
2023-04-04T10:01:15.537Z,61.70
2023-04-04T10:04:38.064Z,60.30
2023-04-04T10:07:59.661Z,65.30
2023-04-04T10:11:28.799Z,61.90
2023-04-04T10:14:57.209Z,62.90
2023-04-04T10:18:18.944Z,62.70
2023-04-04T10:21:42.115Z,64.30
2023-04-04T10:25:04.242Z,61.60
2023-04-04T10:28:26.604Z,61.30
2023-04-04T10:31:50.784Z,63.70
2023-04-04T10:35:12.771Z,64.10
2023-04-04T10:38:40.625Z,64.60
2023-04-04T10:42:05.193Z,67.00
2023-04-04T10:45:27.140Z,64.70
2023-04-04T10:48:50.417Z,65.80
2023-04-04T10:52:13.596Z,67.40
2023-04-04T10:55:35.641Z,69.70
2023-04-04T10:59:08.769Z,69.00
2023-04-04T11:02:43.451Z,69.50
2023-04-04T11:06:14.013Z,69.60
2023-04-04T11:09:48.460Z,70.20
2023-04-04T11:13:13.306Z,71.40
2023-04-04T11:16:43.946Z,71.20
2023-04-04T11:20:07.612Z,72.30
2023-04-04T11:23:38.431Z,68.60
2023-04-04T11:27:00.038Z,69.30
2023-04-04T11:30:21.939Z,68.80
2023-04-04T11:33:54.017Z,70.30
2023-04-04T11:37:16.102Z,71.00
2023-04-04T11:40:39.753Z,68.60
2023-04-04T11:44:03.272Z,69.70
2023-04-04T11:47:25.156Z,70.30
2023-04-04T11:50:47.688Z,71.50
2023-04-04T11:54:13.241Z,70.20
2023-04-04T11:57:41.122Z,70.90
2023-04-04T12:01:02.957Z,69.20
2023-04-04T12:04:25.345Z,70.10
2023-04-04T12:07:47.400Z,69.80
2023-04-04T12:11:09.241Z,69.00
2023-04-04T12:14:32.437Z,72.00
2023-04-04T12:17:54.095Z,70.40
2023-04-04T12:21:15.778Z,68.50
2023-04-04T12:24:37.631Z,68.80
2023-04-04T12:27:59.687Z,70.40
2023-04-04T12:31:23.200Z,69.50
2023-04-04T12:34:49.969Z,69.60
2023-04-04T12:38:16.372Z,69.20
2023-04-04T12:41:47.210Z,68.60
2023-04-04T12:45:09.528Z,68.90
2023-04-04T12:48:33.173Z,69.60
2023-04-04T12:51:54.980Z,68.70
2023-04-04T12:55:20.164Z,70.90
2023-04-04T12:58:47.264Z,70.30
2023-04-04T13:02:11.277Z,69.20
2023-04-04T13:05:39.179Z,68.60
2023-04-04T13:09:01.095Z,69.40
2023-04-04T13:12:22.702Z,68.40
2023-04-04T13:15:47.959Z,68.10
2023-04-04T13:19:12.490Z,67.60
2023-04-04T13:22:41.376Z,66.60
2023-04-04T13:26:03.660Z,65.70
2023-04-04T13:29:26.971Z,65.50
2023-04-04T13:32:48.638Z,66.60
2023-04-04T13:36:10.290Z,67.50
2023-04-04T13:39:33.295Z,65.50
2023-04-04T13:42:55.054Z,66.10
2023-04-04T13:46:16.684Z,64.70
2023-04-04T13:49:38.317Z,63.80
2023-04-04T13:53:00.395Z,65.20
2023-04-04T13:56:23.590Z,66.00
2023-04-04T13:59:45.440Z,64.90
2023-04-04T14:03:07.282Z,65.30
2023-04-04T14:06:28.912Z,64.90
2023-04-04T14:09:50.514Z,65.90
2023-04-04T14:13:13.464Z,64.20
2023-04-04T14:16:35.152Z,65.70
2023-04-04T14:19:56.993Z,67.20
2023-04-04T14:23:18.574Z,66.00
2023-04-04T14:26:40.214Z,65.40
2023-04-04T14:30:03.381Z,63.00
2023-04-04T14:33:24.965Z,64.20
2023-04-04T14:36:46.570Z,64.60
2023-04-04T14:40:08.711Z,64.60
2023-04-04T14:43:30.353Z,63.40
2023-04-04T14:46:53.339Z,62.70
2023-04-04T14:50:15.096Z,64.30
2023-04-04T14:53:36.773Z,64.30
2023-04-04T14:56:58.377Z,64.90
2023-04-04T15:00:20.552Z,64.40
2023-04-04T15:03:43.632Z,65.90
2023-04-04T15:07:05.350Z,65.10
2023-04-04T15:10:27.015Z,64.70
2023-04-04T15:13:48.661Z,63.20
2023-04-04T15:17:10.363Z,63.50
2023-04-04T15:20:33.929Z,65.50
2023-04-04T15:23:55.626Z,65.00
2023-04-04T15:27:17.264Z,64.20
2023-04-04T15:30:39.282Z,64.60
2023-04-04T15:34:01.180Z,65.70
2023-04-04T15:37:26.280Z,64.00
2023-04-04T15:40:48.485Z,64.80
2023-04-04T15:44:10.187Z,64.00
2023-04-04T15:47:36.113Z,63.50
2023-04-04T15:50:59.593Z,64.20
2023-04-04T15:54:22.618Z,63.80
2023-04-04T15:57:44.874Z,64.70
2023-04-04T16:01:06.975Z,65.00
2023-04-04T16:04:28.658Z,65.70
2023-04-04T16:07:50.261Z,66.30
2023-04-04T16:11:13.217Z,67.10
2023-04-04T16:14:34.850Z,65.80
2023-04-04T16:17:56.485Z,65.80
2023-04-04T16:21:18.116Z,67.00
2023-04-04T16:24:39.731Z,67.60
2023-04-04T16:28:02.727Z,66.10
2023-04-04T16:31:24.370Z,66.50
2023-04-04T16:34:45.995Z,65.90
2023-04-04T16:38:07.990Z,66.40
2023-04-04T16:41:29.799Z,68.20
2023-04-04T16:44:53.216Z,67.90
2023-04-04T16:48:14.843Z,68.10
2023-04-04T16:51:36.653Z,69.10
2023-04-04T16:54:58.333Z,69.20
2023-04-04T16:58:19.987Z,67.30
2023-04-04T17:01:43.638Z,68.80
2023-04-04T17:08:42.332Z,68.90
2023-04-04T17:12:04.799Z,69.00
2023-04-04T17:15:30.298Z,68.20
2023-04-04T17:18:54.143Z,68.50
2023-04-04T17:22:16.883Z,69.90
2023-04-04T17:29:36.819Z,72.20
2023-04-04T17:32:58.709Z,71.70
2023-04-04T17:36:22.500Z,72.10
2023-04-04T17:39:45.554Z,72.80
2023-04-04T17:46:45.191Z,74.10
2023-04-04T17:50:07.806Z,74.60
2023-04-04T18:01:14.271Z,76.10
2023-04-04T18:04:36.304Z,76.40
2023-04-04T18:07:57.866Z,76.60
2023-04-04T18:14:52.588Z,77.20
2023-04-04T18:18:14.336Z,77.60
2023-04-04T18:21:35.898Z,77.50
2023-04-04T18:28:55.815Z,78.60
2023-04-04T18:32:19.435Z,78.70
2023-04-04T18:39:11.390Z,79.30
2023-04-04T18:42:33.387Z,78.90
2023-04-04T18:45:55.144Z,78.70
2023-04-04T18:52:54.762Z,78.60
2023-04-04T18:56:16.437Z,78.80
2023-04-04T18:59:38.063Z,80.30
2023-04-04T19:06:36.776Z,80.50
2023-04-04T19:10:02.834Z,80.30
2023-04-04T19:13:24.469Z,80.70
2023-04-04T19:16:46.077Z,81.00
2023-04-04T19:20:08.099Z,82.00
2023-04-04T19:23:29.724Z,82.50
2023-04-04T19:26:52.679Z,82.80
2023-04-04T19:30:29.202Z,83.00
2023-04-04T19:33:51.422Z,83.40
2023-04-04T19:37:13.606Z,83.50
2023-04-04T19:40:46.613Z,83.80
2023-04-04T19:44:14.453Z,84.00
2023-04-04T19:47:36.143Z,84.20
2023-04-04T19:50:58.093Z,85.00
2023-04-04T19:54:25.526Z,84.80
2023-04-04T19:57:47.757Z,85.50
2023-04-04T20:01:17.335Z,85.60
2023-04-04T20:04:40.056Z,87.10
2023-04-04T20:08:06.696Z,88.40
2023-04-04T20:11:32.508Z,89.40
2023-04-04T20:14:56.877Z,89.30
2023-04-04T20:18:22.864Z,89.10
2023-04-04T20:21:45.246Z,88.90
2023-04-04T20:25:10.423Z,89.10
2023-04-04T20:28:32.266Z,89.60
2023-04-04T20:31:54.507Z,89.00
2023-04-04T20:35:26.717Z,90.00
2023-04-04T20:38:48.485Z,89.60
2023-04-04T20:42:16.777Z,90.00
2023-04-04T20:45:42.632Z,90.60
2023-04-04T20:49:04.782Z,90.90
2023-04-04T20:52:27.734Z,90.70
2023-04-04T20:55:49.397Z,90.90
2023-04-04T20:59:25.915Z,91.30
2023-04-04T21:02:47.582Z,90.90
2023-04-04T21:06:10.697Z,91.70
2023-04-04T21:13:10.820Z,91.70
2023-04-04T21:16:32.441Z,92.20
2023-04-04T21:19:54.072Z,92.40
2023-04-04T21:23:23.030Z,92.70
2023-04-04T21:26:44.690Z,92.70
2023-04-04T21:30:08.368Z,92.90
2023-04-04T21:33:29.933Z,93.20
2023-04-04T21:36:52.764Z,92.70
2023-04-04T21:40:15.802Z,92.60
2023-04-04T21:43:37.599Z,92.70
2023-04-04T21:47:00.471Z,92.90
2023-04-04T21:50:22.022Z,93.30
2023-04-04T21:53:43.845Z,92.80
2023-04-04T21:57:05.431Z,93.10
2023-04-04T22:00:27.257Z,92.70
2023-04-04T22:03:50.324Z,93.10
2023-04-04T22:07:11.873Z,92.60
2023-04-04T22:10:33.444Z,93.10
2023-04-04T22:13:55.225Z,93.10
2023-04-04T22:17:16.755Z,92.80
2023-04-04T22:20:39.807Z,92.70
2023-04-04T22:24:01.580Z,92.50
2023-04-04T22:27:23.117Z,92.40
2023-04-04T22:30:44.653Z,92.30
2023-04-04T22:34:06.239Z,92.90
2023-04-04T22:37:29.145Z,93.40
2023-04-04T22:40:50.867Z,93.70
2023-04-04T22:44:12.436Z,93.90
2023-04-04T22:47:34.069Z,94.10
2023-04-04T22:50:55.815Z,94.40
2023-04-04T22:54:18.800Z,94.60
2023-04-04T22:57:40.373Z,95.00
2023-04-04T23:01:02.009Z,95.40
2023-04-04T23:04:23.633Z,95.50
2023-04-04T23:07:45.368Z,95.50
2023-04-04T23:11:08.262Z,95.70
2023-04-04T23:14:29.938Z,95.70
2023-04-04T23:17:51.519Z,95.80
2023-04-04T23:21:13.105Z,96.10
2023-04-04T23:24:34.661Z,96.10
2023-04-04T23:27:57.595Z,95.90
2023-04-04T23:31:19.535Z,95.90
2023-04-04T23:34:41.098Z,95.30
2023-04-04T23:38:02.656Z,95.80
2023-04-04T23:41:24.280Z,95.40
2023-04-04T23:44:47.181Z,95.40
2023-04-04T23:48:08.803Z,95.60
2023-04-04T23:51:30.569Z,96.00
2023-04-04T23:54:52.125Z,95.50
2023-04-04T23:58:13.679Z,95.90
